Time;durP1;ratioP1;P1;durP2;ratioP2;P2;SDS_P1;SDS_P2;PMS_P1;PMS_P2;Temp;Humidity;BMP_temperature;BMP_pressure;BME280_temperature;BME280_humidity;BME280_pressure;Samples;Min_cycle;Max_cycle;Signal;HPM_P1;HPM_P2
2021/06/11 00:00:42;;;;;;;10.50;9.00;;;19.20;82.20;;;;;;5076791;28;20106;-75
2021/06/11 00:03:08;;;;;;;12.13;9.55;;;19.20;82.20;;;;;;5076820;28;20063;-74
2021/06/11 00:05:34;;;;;;;13.00;10.10;;;19.20;82.20;;;;;;5076786;28;20060;-74
2021/06/11 00:08:00;;;;;;;12.63;10.30;;;19.20;82.20;;;;;;5076864;28;20051;-75
2021/06/11 00:10:26;;;;;;;11.45;9.85;;;19.20;82.20;;;;;;5076538;28;20425;-74
2021/06/11 00:12:52;;;;;;;14.18;9.32;;;19.20;82.20;;;;;;5077086;28;20025;-74
2021/06/11 00:18:42;;;;;;;11.15;9.45;;;19.20;82.30;;;;;;5079957;28;20121;-74
2021/06/11 00:21:08;;;;;;;10.93;9.82;;;19.20;82.30;;;;;;5097371;28;20032;-74
2021/06/11 00:23:34;;;;;;;12.35;9.93;;;19.20;82.40;;;;;;5078750;28;20035;-74
2021/06/11 00:25:59;;;;;;;11.75;9.82;;;19.20;82.50;;;;;;5075960;28;20459;-75
2021/06/11 00:28:25;;;;;;;12.45;10.55;;;19.20;82.50;;;;;;5076401;28;20033;-74
2021/06/11 00:30:51;;;;;;;16.45;13.43;;;19.20;82.60;;;;;;5075757;28;20525;-75
2021/06/11 00:33:16;;;;;;;134.05;71.45;;;19.20;82.60;;;;;;5076363;28;20033;-75
2021/06/11 00:35:42;;;;;;;462.50;259.77;;;19.30;82.60;;;;;;5076063;28;20386;-74
2021/06/11 00:38:08;;;;;;;157.13;84.05;;;19.20;82.50;;;;;;5076099;28;20028;-74
2021/06/11 00:40:35;;;;;;;56.83;33.30;;;19.30;82.50;;;;;;5075631;28;20024;-74
2021/06/11 00:43:00;;;;;;;16.25;12.82;;;19.20;82.50;;;;;;5075994;28;20090;-74
2021/06/11 00:45:26;;;;;;;13.55;11.00;;;19.20;82.50;;;;;;5076043;28;20390;-75
2021/06/11 00:47:54;;;;;;;13.80;11.02;;;19.20;82.40;;;;;;5076051;28;20071;-74
2021/06/11 00:50:25;;;;;;;12.25;10.65;;;19.20;82.50;;;;;;5075912;28;20110;-74
2021/06/11 00:52:55;;;;;;;14.48;10.50;;;19.20;82.50;;;;;;5075842;28;20035;-75
2021/06/11 00:55:21;;;;;;;13.82;9.75;;;19.20;82.50;;;;;;5075531;28;20037;-74
2021/06/11 00:57:48;;;;;;;32.63;23.38;;;19.20;82.50;;;;;;5075481;28;20028;-75
2021/06/11 01:00:15;;;;;;;23.92;15.75;;;19.20;82.60;;;;;;5075778;28;20032;-74
2021/06/11 01:02:41;;;;;;;14.18;11.23;;;19.20;82.80;;;;;;5075903;28;20036;-75
2021/06/11 01:05:08;;;;;;;12.10;10.02;;;19.20;82.90;;;;;;5075187;28;20033;-75
2021/06/11 01:07:37;;;;;;;12.18;10.02;;;19.30;83.00;;;;;;5075720;28;20113;-74
2021/06/11 01:10:03;;;;;;;12.98;9.90;;;19.30;83.00;;;;;;5075534;28;20021;-74
2021/06/11 01:12:29;;;;;;;13.57;10.15;;;19.30;83.00;;;;;;5075465;28;20032;-73
2021/06/11 01:14:55;;;;;;;13.00;10.48;;;19.30;83.00;;;;;;5075327;28;20028;-75
2021/06/11 01:17:21;;;;;;;11.10;9.45;;;19.30;83.10;;;;;;5075532;28;20025;-74
2021/06/11 01:19:49;;;;;;;15.30;9.88;;;19.30;83.10;;;;;;5075507;28;20090;-75
2021/06/11 01:22:31;;;;;;;12.38;9.98;;;19.30;83.10;;;;;;5075831;28;20024;-74
2021/06/11 01:25:32;;;;;;;10.85;9.63;;;19.30;83.20;;;;;;5075128;28;20035;-75
2021/06/11 01:27:58;;;;;;;11.57;9.50;;;19.30;83.10;;;;;;5051560;28;20119;-74
2021/06/11 01:30:25;;;;;;;11.50;9.68;;;19.30;83.10;;;;;;5074874;28;20436;-75
2021/06/11 01:32:55;;;;;;;11.25;9.63;;;19.30;83.20;;;;;;5075127;28;20386;-74
2021/06/11 01:35:26;;;;;;;12.82;9.98;;;19.30;83.20;;;;;;5074724;28;20501;-74
2021/06/11 01:37:59;;;;;;;11.50;9.98;;;19.20;83.30;;;;;;5075092;28;20023;-74
2021/06/11 01:40:25;;;;;;;11.40;9.75;;;19.30;83.30;;;;;;5090858;28;20043;-74
2021/06/11 01:42:51;;;;;;;11.52;9.30;;;19.30;83.20;;;;;;5074652;28;20040;-75
2021/06/11 01:45:18;;;;;;;13.30;10.38;;;19.30;83.10;;;;;;5074953;28;20471;-74
2021/06/11 01:47:50;;;;;;;19.38;10.70;;;19.30;83.10;;;;;;5075079;28;20025;-74
2021/06/11 01:50:21;;;;;;;11.45;9.57;;;19.30;83.20;;;;;;5074471;28;20028;-74
2021/06/11 01:52:47;;;;;;;11.07;9.93;;;19.20;83.10;;;;;;5074442;28;20023;-74
2021/06/11 01:55:14;;;;;;;12.35;10.43;;;19.20;83.60;;;;;;5074980;28;20478;-73
2021/06/11 01:57:41;;;;;;;13.75;10.00;;;19.30;83.10;;;;;;5075175;28;20069;-75
2021/06/11 02:00:07;;;;;;;11.90;9.30;;;19.20;82.90;;;;;;5073711;28;20550;-75
2021/06/11 02:02:35;;;;;;;14.10;9.75;;;19.20;83.00;;;;;;5074522;28;20451;-75
2021/06/11 02:05:06;;;;;;;13.65;9.82;;;19.20;83.00;;;;;;5074440;28;20033;-74
2021/06/11 02:07:32;;;;;;;11.80;9.75;;;19.20;82.90;;;;;;5074527;28;20036;-74
2021/06/11 02:09:59;;;;;;;11.43;9.65;;;19.20;83.40;;;;;;5074356;28;20031;-75
2021/06/11 02:12:24;;;;;;;11.02;8.75;;;19.20;82.90;;;;;;5074397;28;20044;-75
2021/06/11 02:14:50;;;;;;;12.90;10.13;;;19.20;82.90;;;;;;5074318;28;20486;-79
2021/06/11 02:17:17;;;;;;;11.75;9.55;;;19.20;83.00;;;;;;5074214;28;20025;-74
2021/06/11 02:19:44;;;;;;;10.98;9.77;;;19.30;83.00;;;;;;5074837;28;20032;-74
2021/06/11 02:22:10;;;;;;;13.05;9.23;;;19.30;83.00;;;;;;5073845;28;20021;-74
2021/06/11 02:24:39;;;;;;;12.93;10.10;;;19.30;82.90;;;;;;5074237;28;20040;-74
2021/06/11 02:27:07;;;;;;;10.45;9.35;;;19.30;82.90;;;;;;5080175;28;20111;-75
2021/06/11 02:29:36;;;;;;;11.07;9.18;;;19.40;82.80;;;;;;5094310;28;20024;-75
2021/06/11 02:32:03;;;;;;;11.07;9.57;;;19.40;82.70;;;;;;5094218;28;20078;-75
2021/06/11 02:34:29;;;;;;;12.60;9.30;;;19.40;82.70;;;;;;5094823;28;20054;-74
2021/06/11 02:36:55;;;;;;;10.52;9.43;;;19.50;82.60;;;;;;5093931;28;20076;-75
2021/06/11 02:39:20;;;;;;;11.20;9.73;;;19.50;82.70;;;;;;5094300;28;20049;-75
2021/06/11 02:41:55;;;;;;;11.95;9.43;;;19.50;82.70;;;;;;5089476;28;20028;-74
2021/06/11 02:44:25;;;;;;;15.35;9.93;;;19.60;82.80;;;;;;5093723;28;20043;-75
2021/06/11 02:47:19;;;;;;;11.77;9.73;;;19.60;82.80;;;;;;5094154;28;20051;-75
2021/06/11 02:49:59;;;;;;;11.18;9.98;;;19.60;82.70;;;;;;5082908;28;20040;-75
2021/06/11 02:52:27;;;;;;;12.68;10.23;;;19.70;82.70;;;;;;5093909;28;20077;-75
2021/06/11 02:54:57;;;;;;;11.07;9.60;;;19.70;82.60;;;;;;5093925;28;20035;-79
2021/06/11 02:57:43;;;;;;;14.73;10.90;;;19.70;82.50;;;;;;5093657;28;20024;-75
2021/06/11 03:00:10;;;;;;;15.38;10.30;;;19.70;82.40;;;;;;5087609;28;20046;-75
2021/06/11 03:03:04;;;;;;;14.35;11.05;;;19.70;82.40;;;;;;5073433;28;20024;-74
2021/06/11 03:05:32;;;;;;;12.35;11.07;;;19.70;82.40;;;;;;5072659;28;20048;-74
2021/06/11 03:08:00;;;;;;;13.20;10.65;;;19.70;82.50;;;;;;5073660;28;20032;-75
2021/06/11 03:10:30;;;;;;;16.05;11.32;;;19.70;82.50;;;;;;5073294;28;20108;-73
2021/06/11 03:13:00;;;;;;;12.57;11.07;;;19.80;82.60;;;;;;5073194;28;20058;-74
2021/06/11 03:15:30;;;;;;;12.13;10.80;;;19.80;82.60;;;;;;5073538;28;20035;-73
2021/06/11 03:17:59;;;;;;;12.25;10.57;;;19.80;82.70;;;;;;5073177;28;20035;-74
2021/06/11 03:20:31;;;;;;;14.93;11.25;;;19.80;82.70;;;;;;5073451;28;20020;-74
2021/06/11 03:23:01;;;;;;;13.70;11.60;;;19.80;82.50;;;;;;5073386;28;20099;-74
2021/06/11 03:25:51;;;;;;;13.75;12.10;;;19.80;82.50;;;;;;5073491;28;20032;-74
2021/06/11 03:28:26;;;;;;;13.68;11.98;;;19.90;82.50;;;;;;5073448;28;20025;-75
2021/06/11 03:30:55;;;;;;;14.25;11.15;;;19.80;82.40;;;;;;5073129;28;20029;-74
2021/06/11 03:33:27;;;;;;;12.68;11.38;;;19.90;82.60;;;;;;5073260;28;20033;-75
2021/06/11 03:36:10;;;;;;;15.57;12.23;;;19.80;82.50;;;;;;5088890;28;20489;-75
2021/06/11 03:38:38;;;;;;;13.70;11.45;;;19.90;82.60;;;;;;5073395;28;20029;-75
2021/06/11 03:41:05;;;;;;;15.07;11.65;;;19.90;82.50;;;;;;5073274;28;20037;-76
2021/06/11 03:43:32;;;;;;;14.75;12.50;;;19.90;82.40;;;;;;5073272;28;20429;-74
2021/06/11 03:46:00;;;;;;;14.77;11.98;;;19.90;82.50;;;;;;5072828;28;20386;-75
2021/06/11 03:48:27;;;;;;;12.18;10.88;;;20.00;82.50;;;;;;5073164;28;20462;-74
2021/06/11 03:50:53;;;;;;;14.32;10.93;;;20.00;82.40;;;;;;5073171;28;20035;-74
2021/06/11 03:53:23;;;;;;;14.05;11.95;;;20.00;82.40;;;;;;5072878;28;20421;-75
2021/06/11 03:55:54;;;;;;;15.35;11.93;;;20.00;82.40;;;;;;5073220;28;20378;-75
2021/06/11 03:58:29;;;;;;;14.18;11.13;;;19.90;82.40;;;;;;5072943;28;20029;-74
2021/06/11 04:00:58;;;;;;;14.00;11.48;;;20.00;82.40;;;;;;5073130;28;20027;-75
2021/06/11 04:03:24;;;;;;;12.23;10.90;;;20.00;82.30;;;;;;5072958;28;20104;-75
2021/06/11 04:05:59;;;;;;;13.85;10.32;;;20.00;82.30;;;;;;5072729;28;20035;-75
2021/06/11 04:08:30;;;;;;;12.10;10.40;;;20.00;82.30;;;;;;5073354;28;20078;-75
2021/06/11 04:10:57;;;;;;;11.20;9.45;;;20.00;82.30;;;;;;5072881;28;20047;-74
2021/06/11 04:13:38;;;;;;;14.38;10.65;;;19.90;82.10;;;;;;5088448;28;20028;-74
2021/06/11 04:16:08;;;;;;;12.63;9.93;;;19.90;82.10;;;;;;5077618;28;20110;-75
2021/06/11 04:18:37;;;;;;;12.10;9.93;;;19.90;82.30;;;;;;5088006;28;20031;-74
2021/06/11 04:21:04;;;;;;;11.40;10.10;;;19.90;82.30;;;;;;5096825;28;20032;-75
2021/06/11 04:23:34;;;;;;;12.48;11.00;;;19.90;82.30;;;;;;5096694;28;20024;-76
2021/06/11 04:26:02;;;;;;;11.98;9.88;;;19.90;82.30;;;;;;5096736;28;20028;-76
2021/06/11 04:28:33;;;;;;;11.48;10.32;;;20.00;82.40;;;;;;5096646;28;20102;-75
2021/06/11 04:31:00;;;;;;;12.00;10.45;;;20.00;82.30;;;;;;5096543;28;20039;-75
2021/06/11 04:33:30;;;;;;;11.35;9.63;;;20.00;82.30;;;;;;5097055;28;20028;-73
2021/06/11 04:35:56;;;;;;;12.80;10.35;;;20.00;82.30;;;;;;5096754;28;20033;-74
2021/06/11 04:38:23;;;;;;;11.15;9.95;;;20.00;82.30;;;;;;5096839;28;20020;-74
2021/06/11 04:40:49;;;;;;;12.45;9.93;;;20.10;82.50;;;;;;5087655;28;20097;-74
2021/06/11 04:43:15;;;;;;;12.65;11.05;;;20.10;82.50;;;;;;5064661;28;20029;-74
2021/06/11 04:45:41;;;;;;;15.15;10.32;;;20.20;82.40;;;;;;5067592;28;20049;-73
2021/06/11 04:48:07;;;;;;;13.93;10.73;;;20.20;82.40;;;;;;5065039;28;20031;-75
2021/06/11 04:50:33;;;;;;;13.80;11.45;;;20.20;82.40;;;;;;5066551;28;20012;-75
2021/06/11 04:52:59;;;;;;;13.40;10.80;;;20.20;82.30;;;;;;5061378;28;20075;-74
2021/06/11 04:55:25;;;;;;;12.60;10.93;;;20.20;82.40;;;;;;5055915;28;20029;-74
2021/06/11 04:57:52;;;;;;;13.05;11.63;;;20.30;82.40;;;;;;5056297;28;20382;-74
2021/06/11 05:00:19;;;;;;;14.05;11.77;;;20.20;82.50;;;;;;5055900;28;20047;-74
2021/06/11 05:02:45;;;;;;;14.82;12.00;;;20.20;82.60;;;;;;5055767;28;20055;-74
2021/06/11 05:05:11;;;;;;;14.52;11.30;;;20.20;82.70;;;;;;5055543;28;20406;-74
2021/06/11 05:07:37;;;;;;;13.73;11.93;;;20.20;82.70;;;;;;5056805;28;20029;-73
2021/06/11 05:10:04;;;;;;;16.38;11.60;;;20.20;83.00;;;;;;5057446;28;20021;-74
2021/06/11 05:12:30;;;;;;;13.20;11.63;;;20.20;83.00;;;;;;5057684;28;20031;-74
2021/06/11 05:14:56;;;;;;;14.27;11.73;;;20.20;83.00;;;;;;5075058;28;20025;-74
2021/06/11 05:17:22;;;;;;;14.43;12.00;;;20.20;83.00;;;;;;5076044;28;20183;-74
2021/06/11 05:19:47;;;;;;;16.38;11.90;;;20.20;83.10;;;;;;5076539;28;20028;-74
2021/06/11 05:22:13;;;;;;;13.98;12.50;;;20.20;83.20;;;;;;5075160;28;20091;-75
2021/06/11 05:24:39;;;;;;;14.18;11.98;;;20.30;83.30;;;;;;5075374;28;20421;-75
2021/06/11 05:27:05;;;;;;;13.73;11.82;;;20.30;83.40;;;;;;5079051;28;20043;-75
2021/06/11 05:29:31;;;;;;;14.85;11.80;;;20.30;83.20;;;;;;5082462;28;20382;-75
2021/06/11 05:31:57;;;;;;;14.02;11.50;;;20.30;83.30;;;;;;5086136;28;20024;-77
2021/06/11 05:34:22;;;;;;;14.35;12.63;;;20.40;83.20;;;;;;5091502;28;20047;-74
2021/06/11 05:36:48;;;;;;;14.77;12.20;;;20.40;83.20;;;;;;5090754;28;20054;-73
2021/06/11 05:39:14;;;;;;;15.00;12.57;;;20.40;83.00;;;;;;5089436;28;20028;-74
2021/06/11 05:41:40;;;;;;;13.45;11.75;;;20.40;83.00;;;;;;5092521;28;20048;-74
2021/06/11 05:44:05;;;;;;;14.68;11.50;;;20.50;83.10;;;;;;5089365;28;20024;-75
2021/06/11 05:46:32;;;;;;;13.60;11.27;;;20.50;83.10;;;;;;5089412;28;20437;-74
2021/06/11 05:48:58;;;;;;;11.95;10.48;;;20.60;82.90;;;;;;5095269;28;20050;-74
2021/06/11 05:51:23;;;;;;;9.88;8.88;;;20.60;82.80;;;;;;5099693;28;20024;-74
2021/06/11 05:53:49;;;;;;;9.20;7.85;;;20.70;82.60;;;;;;5090389;28;20028;-74
2021/06/11 05:56:15;;;;;;;8.90;7.93;;;20.80;82.20;;;;;;5080246;28;20028;-73
2021/06/11 05:58:40;;;;;;;8.18;7.38;;;20.80;81.80;;;;;;5074780;28;20031;-75
2021/06/11 06:01:06;;;;;;;7.88;7.10;;;20.90;81.60;;;;;;5074249;28;20040;-74
2021/06/11 06:03:32;;;;;;;8.18;7.38;;;21.00;81.30;;;;;;5074689;28;20024;-74
2021/06/11 06:05:58;;;;;;;8.23;6.68;;;21.10;80.90;;;;;;5074747;28;20040;-74
2021/06/11 06:08:24;;;;;;;10.80;6.97;;;21.30;80.50;;;;;;5074140;28;20016;-74
2021/06/11 06:10:49;;;;;;;8.98;6.65;;;21.40;79.90;;;;;;5074013;28;20096;-73
2021/06/11 06:13:15;;;;;;;6.68;6.03;;;21.60;79.40;;;;;;5074125;28;20028;-74
2021/06/11 06:15:42;;;;;;;6.78;6.07;;;21.70;79.10;;;;;;5074268;28;20078;-75
2021/06/11 06:18:08;;;;;;;6.80;6.10;;;21.80;78.50;;;;;;5074269;28;20025;-75
2021/06/11 06:20:34;;;;;;;8.35;6.68;;;22.00;77.80;;;;;;5074066;28;20029;-74
2021/06/11 06:23:00;;;;;;;7.57;6.20;;;22.10;77.20;;;;;;5074189;28;20116;-74
2021/06/11 06:25:26;;;;;;;7.18;6.45;;;22.10;76.50;;;;;;5073657;28;20078;-74
2021/06/11 06:27:51;;;;;;;7.78;6.97;;;22.20;76.10;;;;;;5073932;28;20107;-74
2021/06/11 06:30:18;;;;;;;7.00;6.40;;;22.20;76.50;;;;;;5073775;28;20024;-75
2021/06/11 06:32:44;;;;;;;6.53;5.80;;;22.40;76.10;;;;;;5074025;28;20029;-75
2021/06/11 06:35:11;;;;;;;6.10;5.50;;;22.50;75.30;;;;;;5073846;28;20121;-75
2021/06/11 06:37:37;;;;;;;6.10;5.50;;;22.60;74.80;;;;;;5073844;28;20070;-75
2021/06/11 06:40:04;;;;;;;6.30;5.70;;;22.80;74.10;;;;;;5072348;28;20099;-78
2021/06/11 06:42:30;;;;;;;5.70;5.10;;;22.90;73.50;;;;;;5072936;28;20020;-75
2021/06/11 06:44:56;;;;;;;5.40;4.90;;;23.10;72.70;;;;;;5073176;28;20024;-74
2021/06/11 06:47:22;;;;;;;5.00;4.55;;;23.20;72.00;;;;;;5073227;28;20044;-75
2021/06/11 06:49:48;;;;;;;5.50;4.97;;;23.20;72.10;;;;;;5073453;28;20029;-74
2021/06/11 06:52:15;;;;;;;5.57;4.68;;;23.30;71.70;;;;;;5073775;28;20051;-75
2021/06/11 06:54:43;;;;;;;5.50;5.00;;;23.40;71.00;;;;;;5073963;28;20079;-76
2021/06/11 06:57:09;;;;;;;4.68;4.22;;;23.40;70.30;;;;;;5088975;28;20036;-76
2021/06/11 06:59:35;;;;;;;3.75;3.42;;;23.50;70.00;;;;;;5074217;28;20140;-75
2021/06/11 07:02:00;;;;;;;4.70;4.30;;;23.50;69.30;;;;;;5073572;28;20520;-74
2021/06/11 07:04:27;;;;;;;5.57;5.07;;;23.50;69.20;;;;;;5072902;28;20435;-75
2021/06/11 07:06:53;;;;;;;6.95;6.13;;;23.60;68.90;;;;;;5073496;28;20033;-75
2021/06/11 07:09:19;;;;;;;8.93;7.85;;;23.70;69.10;;;;;;5073715;28;20446;-74
2021/06/11 07:11:49;;;;;;;8.95;7.88;;;23.70;69.30;;;;;;5073049;28;20025;-74
2021/06/11 07:14:16;;;;;;;8.95;8.05;;;23.80;69.40;;;;;;5073400;28;20413;-74
2021/06/11 07:16:42;;;;;;;9.32;7.47;;;23.90;69.60;;;;;;5073479;28;20029;-74
2021/06/11 07:19:09;;;;;;;7.47;6.78;;;24.00;69.60;;;;;;5072927;28;20025;-73
2021/06/11 07:21:35;;;;;;;7.32;6.63;;;24.00;69.80;;;;;;5073120;28;20435;-74
2021/06/11 07:24:00;;;;;;;8.65;7.53;;;24.20;69.70;;;;;;5073081;28;20104;-75
2021/06/11 07:26:26;;;;;;;6.85;6.15;;;24.30;69.20;;;;;;5073174;28;20375;-74
2021/06/11 07:28:52;;;;;;;8.88;6.75;;;24.30;68.80;;;;;;5073440;28;20451;-75
2021/06/11 07:31:18;;;;;;;6.88;6.15;;;24.40;68.60;;;;;;5073219;28;20028;-75
2021/06/11 07:33:44;;;;;;;6.78;6.15;;;24.40;68.30;;;;;;5073204;28;20067;-75
2021/06/11 07:36:10;;;;;;;7.35;6.18;;;24.50;68.20;;;;;;5073692;28;20028;-74
2021/06/11 07:38:36;;;;;;;7.78;6.88;;;24.60;67.80;;;;;;5073329;28;20025;-74
2021/06/11 07:41:02;;;;;;;7.18;6.13;;;24.70;67.70;;;;;;5072633;28;20032;-74
2021/06/11 07:43:27;;;;;;;7.00;6.25;;;24.90;67.80;;;;;;5072988;28;20107;-75
2021/06/11 07:45:55;;;;;;;7.40;6.70;;;25.00;67.20;;;;;;5073512;28;20135;-75
2021/06/11 07:48:21;;;;;;;6.47;5.88;;;25.20;67.10;;;;;;5072886;28;20415;-74
2021/06/11 07:50:47;;;;;;;6.72;5.82;;;25.40;67.00;;;;;;5076131;28;20055;-76
2021/06/11 07:53:13;;;;;;;5.88;5.38;;;25.70;66.60;;;;;;5076896;28;20169;-75
2021/06/11 07:55:40;;;;;;;6.18;5.57;;;26.00;66.00;;;;;;5077325;28;20056;-74
2021/06/11 07:58:06;;;;;;;5.95;5.32;;;26.30;65.20;;;;;;5076925;28;20055;-74
2021/06/11 08:00:31;;;;;;;5.50;5.00;;;26.60;64.60;;;;;;5076362;28;20046;-75
2021/06/11 08:02:58;;;;;;;5.85;4.80;;;26.90;64.30;;;;;;5076331;28;20027;-74
2021/06/11 08:05:26;;;;;;;5.80;5.30;;;27.20;63.60;;;;;;5076610;28;20028;-74
2021/06/11 08:07:51;;;;;;;5.30;4.80;;;27.50;62.80;;;;;;5076591;28;20036;-74
2021/06/11 08:10:17;;;;;;;4.47;4.07;;;27.70;61.70;;;;;;5075778;28;20374;-74
2021/06/11 08:12:43;;;;;;;4.88;4.43;;;27.90;61.00;;;;;;5076229;28;20064;-75
2021/06/11 08:15:09;;;;;;;5.35;4.88;;;28.10;60.60;;;;;;5076376;28;20055;-74
2021/06/11 08:17:35;;;;;;;4.60;4.30;;;28.20;60.10;;;;;;5075953;28;20028;-74
2021/06/11 08:20:01;;;;;;;4.50;4.10;;;28.30;59.80;;;;;;5075935;28;20436;-74
2021/06/11 08:22:26;;;;;;;4.78;4.00;;;28.30;59.00;;;;;;5075104;28;20075;-75
2021/06/11 08:24:52;;;;;;;4.43;4.00;;;28.30;58.80;;;;;;5075863;28;20055;-75
2021/06/11 08:27:18;;;;;;;3.72;3.42;;;28.30;59.10;;;;;;5076427;28;20040;-75
2021/06/11 08:29:44;;;;;;;3.47;3.20;;;28.30;58.80;;;;;;5076594;28;20454;-76
2021/06/11 08:32:09;;;;;;;3.08;2.85;;;28.20;58.40;;;;;;5075976;28;20028;-75
2021/06/11 08:34:37;;;;;;;2.65;2.45;;;28.10;58.00;;;;;;5076252;28;20481;-75
2021/06/11 08:37:06;;;;;;;2.70;2.50;;;27.90;58.10;;;;;;5076285;28;20028;-75
2021/06/11 08:39:34;;;;;;;2.22;2.03;;;27.70;58.20;;;;;;5075877;28;20032;-75
2021/06/11 08:42:00;;;;;;;2.65;1.90;;;27.40;58.40;;;;;;5075234;28;20047;-76
2021/06/11 08:44:27;;;;;;;1.65;1.55;;;27.10;58.90;;;;;;5076288;28;20028;-75
2021/06/11 08:46:54;;;;;;;1.90;1.75;;;26.80;59.40;;;;;;5076108;28;20051;-75
2021/06/11 08:49:21;;;;;;;1.75;1.65;;;26.60;60.00;;;;;;5075798;28;20067;-74
2021/06/11 08:51:48;;;;;;;2.50;2.30;;;26.40;60.60;;;;;;5076227;28;20036;-74
2021/06/11 08:54:13;;;;;;;2.17;2.00;;;26.20;61.10;;;;;;5075875;28;20028;-75
2021/06/11 08:56:39;;;;;;;2.38;1.90;;;26.00;61.60;;;;;;5075682;28;20437;-75
2021/06/11 08:59:06;;;;;;;2.00;1.90;;;25.90;61.90;;;;;;5083905;28;20025;-74
2021/06/11 09:01:33;;;;;;;2.13;2.00;;;25.70;62.00;;;;;;5075339;28;20104;-75
2021/06/11 09:03:59;;;;;;;1.80;1.70;;;25.60;62.30;;;;;;5079611;28;20036;-74
2021/06/11 09:06:25;;;;;;;2.53;1.90;;;25.50;62.50;;;;;;5075545;28;20033;-74
2021/06/11 09:09:00;;;;;;;1.98;1.73;;;25.50;62.80;;;;;;5075662;28;20029;-75
2021/06/11 09:11:28;;;;;;;1.70;1.60;;;25.40;62.70;;;;;;5075634;28;20021;-74
2021/06/11 09:14:12;;;;;;;1.50;1.40;;;25.50;63.00;;;;;;5089614;28;20035;-74
2021/06/11 09:16:44;;;;;;;2.23;1.70;;;25.60;62.70;;;;;;5095860;28;20426;-75
2021/06/11 09:19:18;;;;;;;1.70;1.60;;;25.80;62.10;;;;;;5095378;28;20080;-75
2021/06/11 09:21:48;;;;;;;;;;;26.00;61.90;;;;;;5096137;28;20103;-75
2021/06/11 09:24:33;;;;;;;3.28;2.50;;;26.10;62.00;;;;;;5095245;28;20393;-74
2021/06/11 09:27:31;;;;;;;2.60;2.40;;;26.40;61.20;;;;;;5111237;28;20092;-74
2021/06/11 09:29:52;;;;;;;4.47;2.60;;;26.70;61.00;;;;;;5093828;28;20043;-75
2021/06/11 09:32:21;;;;;;;2.55;2.35;;;27.20;60.30;;;;;;5095058;28;20560;-76
2021/06/11 09:34:49;;;;;;;3.58;3.28;;;27.80;59.10;;;;;;5095365;28;20497;-75
2021/06/11 09:37:18;;;;;;;3.03;2.53;;;28.70;58.20;;;;;;5095744;28;20378;-75
2021/06/11 09:39:43;;;;;;;3.58;2.65;;;29.50;56.40;;;;;;5095723;28;20032;-75
2021/06/11 09:45:31;;;;;;;3.58;3.28;;;29.80;54.40;;;;;;5054750;28;20118;-75
2021/06/11 09:47:57;;;;;;;7.50;3.55;;;30.20;54.50;;;;;;5069787;28;20072;-75
2021/06/11 09:50:27;;;;;;;4.07;3.67;;;30.50;54.00;;;;;;5066878;28;20077;-76
2021/06/11 09:53:03;;;;;;;3.97;3.67;;;30.80;53.30;;;;;;5091830;28;20028;-76
2021/06/11 09:55:51;;;;;;;3.67;3.38;;;30.90;53.00;;;;;;5095200;28;20424;-76
2021/06/11 09:58:22;;;;;;;4.03;3.63;;;31.80;53.10;;;;;;5094828;28;20028;-75
2021/06/11 10:00:56;;;;;;;3.13;2.90;;;33.10;52.20;;;;;;5110537;28;20423;-76
2021/06/11 10:03:31;;;;;;;3.10;2.90;;;34.20;50.50;;;;;;5093438;28;20029;-77
2021/06/11 10:05:59;;;;;;;3.05;2.85;;;35.40;48.70;;;;;;5094465;28;20035;-76
2021/06/11 10:08:25;;;;;;;2.70;2.50;;;36.40;46.90;;;;;;5093469;28;20028;-75
2021/06/11 10:10:53;;;;;;;2.83;2.63;;;37.20;45.90;;;;;;5094735;28;20077;-76
2021/06/11 10:13:21;;;;;;;3.00;2.80;;;37.90;44.50;;;;;;5093851;28;20389;-76
2021/06/11 10:15:49;;;;;;;2.70;2.50;;;38.20;43.60;;;;;;5110167;28;20031;-77
2021/06/11 10:18:15;;;;;;;2.25;2.15;;;38.40;43.10;;;;;;5093610;28;20474;-76
2021/06/11 10:20:42;;;;;;;2.30;2.20;;;38.80;42.50;;;;;;5094173;28;20028;-77
2021/06/11 10:23:19;;;;;;;2.30;2.20;;;39.20;41.80;;;;;;5094300;28;20043;-75
2021/06/11 10:25:51;;;;;;;2.33;2.10;;;39.70;41.40;;;;;;5093971;28;20106;-75
2021/06/11 10:28:24;;;;;;;2.22;2.10;;;40.00;40.90;;;;;;5094288;28;20032;-75
2021/06/11 10:30:58;;;;;;;2.22;2.13;;;40.30;40.20;;;;;;5094304;28;20359;-75
2021/06/11 10:33:51;;;;;;;1.92;1.83;;;40.50;40.00;;;;;;5094031;28;20061;-76
2021/06/11 10:36:30;;;;;;;2.38;2.25;;;41.10;39.30;;;;;;5083992;28;20052;-76
2021/06/11 10:39:07;;;;;;;1.48;1.48;;;41.60;38.70;;;;;;5074065;28;20025;-76
2021/06/11 10:42:03;;;;;;;3.13;2.00;;;41.50;37.80;;;;;;5073615;28;20103;-75
2021/06/11 10:44:45;;;;;;;2.00;1.90;;;40.70;37.80;;;;;;5073568;28;20036;-77
2021/06/11 10:47:17;;;;;;;1.90;1.80;;;39.30;38.10;;;;;;5073914;28;20075;-75
2021/06/11 10:50:01;;;;;;;2.70;1.90;;;38.30;39.30;;;;;;5073802;28;20025;-76
2021/06/11 10:52:45;;;;;;;3.80;1.92;;;37.90;40.00;;;;;;5073124;28;20555;-76
2021/06/11 10:55:14;;;;;;;1.50;1.50;;;37.80;40.30;;;;;;5073586;28;20056;-76
2021/06/11 10:57:41;;;;;;;2.33;1.98;;;38.10;40.20;;;;;;5073320;28;20044;-76
2021/06/11 11:00:26;;;;;;;1.45;1.40;;;38.60;40.10;;;;;;5073607;28;20044;-76
2021/06/11 11:02:58;;;;;;;2.55;2.08;;;39.50;39.60;;;;;;5073475;28;20020;-76
2021/06/11 11:05:31;;;;;;;1.95;1.85;;;40.30;39.30;;;;;;5073702;28;20040;-76
2021/06/11 11:07:58;;;;;;;2.08;1.85;;;41.10;38.20;;;;;;5073420;28;20029;-76
2021/06/11 11:10:45;;;;;;;2.80;2.28;;;41.50;38.00;;;;;;5067303;28;20032;-76
2021/06/11 11:13:16;;;;;;;2.00;1.67;;;42.00;37.60;;;;;;5071993;28;20065;-76
2021/06/11 11:15:50;;;;;;;2.50;2.30;;;41.30;37.20;;;;;;5073571;28;20398;-75
2021/06/11 11:18:22;;;;;;;2.50;2.30;;;40.30;37.60;;;;;;5071168;28;20036;-75
2021/06/11 11:20:50;;;;;;;1.70;1.60;;;39.50;38.00;;;;;;5073189;28;20056;-74
2021/06/11 11:23:19;;;;;;;2.20;2.00;;;38.30;38.40;;;;;;5069727;28;20028;-76
2021/06/11 11:25:46;;;;;;;2.65;2.10;;;37.10;39.40;;;;;;5084307;28;20129;-76
2021/06/11 11:28:13;;;;;;;3.47;1.90;;;36.10;40.30;;;;;;5073057;28;20102;-75
2021/06/11 11:30:40;;;;;;;2.17;1.60;;;35.50;41.00;;;;;;5068590;28;20055;-76
2021/06/11 11:33:08;;;;;;;2.20;2.10;;;35.10;41.70;;;;;;5066519;28;20052;-76
2021/06/11 11:35:36;;;;;;;2.97;2.08;;;35.00;42.10;;;;;;5070355;28;20024;-76
2021/06/11 11:38:05;;;;;;;4.85;2.13;;;35.40;42.20;;;;;;5073229;28;20021;-76
2021/06/11 11:40:32;;;;;;;1.83;1.73;;;36.30;41.90;;;;;;5073316;28;20032;-74
2021/06/11 11:43:00;;;;;;;1.95;1.85;;;37.40;41.20;;;;;;5072654;28;20041;-75
2021/06/11 11:45:28;;;;;;;2.00;1.90;;;38.40;40.10;;;;;;5073028;28;20367;-76
2021/06/11 11:47:55;;;;;;;2.28;2.13;;;39.30;39.30;;;;;;5073640;28;20542;-76
2021/06/11 11:50:22;;;;;;;2.20;2.10;;;40.10;38.60;;;;;;5072680;28;20029;-76
2021/06/11 11:52:48;;;;;;;2.65;1.95;;;40.80;38.10;;;;;;5072905;28;20070;-76
2021/06/11 11:55:15;;;;;;;2.50;2.30;;;41.30;37.40;;;;;;5072967;28;20462;-76
2021/06/11 11:57:42;;;;;;;2.40;2.25;;;41.60;37.10;;;;;;5072734;28;20086;-75
2021/06/11 12:00:09;;;;;;;2.38;2.17;;;41.80;36.90;;;;;;5074183;28;20059;-75
2021/06/11 12:02:35;;;;;;;4.88;2.30;;;41.60;37.00;;;;;;5083064;28;20107;-76
2021/06/11 12:05:04;;;;;;;1.92;1.67;;;41.10;37.00;;;;;;5072919;28;20123;-75
2021/06/11 12:07:30;;;;;;;2.85;2.05;;;40.90;36.90;;;;;;5072948;28;20104;-76
2021/06/11 12:09:56;;;;;;;2.25;1.90;;;40.80;36.90;;;;;;5073098;28;20052;-76
2021/06/11 12:12:22;;;;;;;2.40;2.20;;;40.80;37.10;;;;;;5072908;28;20033;-75
2021/06/11 12:14:48;;;;;;;2.25;2.08;;;41.20;37.10;;;;;;5072804;28;20123;-76
2021/06/11 12:17:14;;;;;;;2.50;2.13;;;41.40;36.90;;;;;;5072925;28;20497;-75
2021/06/11 12:19:39;;;;;;;2.45;2.25;;;41.60;37.10;;;;;;5072595;28;20037;-76
2021/06/11 12:22:06;;;;;;;2.35;2.20;;;42.00;36.70;;;;;;5072428;28;20052;-76
2021/06/11 12:24:33;;;;;;;2.00;1.90;;;42.30;37.00;;;;;;5061058;28;20397;-76
2021/06/11 12:26:59;;;;;;;2.40;2.20;;;42.40;35.90;;;;;;5058899;28;20025;-77
2021/06/11 12:29:25;;;;;;;4.05;2.10;;;42.50;35.80;;;;;;5060592;28;20036;-76
2021/06/11 12:31:51;;;;;;;2.22;2.10;;;42.50;35.80;;;;;;5061371;28;20481;-76
2021/06/11 12:34:18;;;;;;;2.47;1.73;;;42.60;35.30;;;;;;5062597;28;20029;-76
2021/06/11 12:36:44;;;;;;;2.47;2.25;;;42.70;35.00;;;;;;5063606;28;20031;-77
2021/06/11 12:39:13;;;;;;;2.40;2.08;;;42.70;35.00;;;;;;5065329;28;20036;-76
2021/06/11 12:41:40;;;;;;;2.20;2.08;;;42.30;34.80;;;;;;5082642;28;20079;-76
2021/06/11 12:44:18;;;;;;;1.90;1.80;;;41.30;35.10;;;;;;5075817;28;20039;-76
2021/06/11 12:46:50;;;;;;;2.45;2.28;;;39.90;35.80;;;;;;5075820;28;20076;-76
2021/06/11 12:49:17;;;;;;;2.35;2.22;;;38.30;37.10;;;;;;5075409;28;20439;-75
2021/06/11 12:51:43;;;;;;;2.58;2.35;;;37.00;38.50;;;;;;5075773;28;20078;-76
2021/06/11 12:54:10;;;;;;;2.63;2.42;;;36.20;39.50;;;;;;5075826;28;20056;-75